Terminal Aerodrome Forecast
Issued by NWS Sterling, VA

Current Version | Previous Version | Text Only | Print | Product List | Glossary On
Versions: 1 2 3 4 5 6 7 8 9 10 11 12 13 14 15 16 17 18 19 20 21
000
FTUS41 KLWX 281447 AAA
TAFCHO
TAF AMD
KCHO 281447Z 2815/2912 00000KT P6SM BKN100
     FM281700 00000KT P6SM -TSRA BKN080CB
     FM282100 VRB03KT P6SM TSRA BKN060CB
     FM290300 11004KT 3SM SHRA OVC060=

USA.gov is the U.S. government's official web portal to all federal, state and local government web resources and services.